Time;durP1;ratioP1;P1;durP2;ratioP2;P2;SDS_P1;SDS_P2;PMS_P1;PMS_P2;Temp;Humidity;BMP_temperature;BMP_pressure;BME280_temperature;BME280_humidity;BME280_pressure;Samples;Min_cycle;Max_cycle;Signal;HPM_P1;HPM_P2
2021/12/27 00:01:55;;;;;;;;;25.00;18.25;;;;;11.50;43.63;98209.22;4798184;29;101832;-86
2021/12/27 00:04:22;;;;;;;;;27.50;23.00;;;;;11.51;44.57;98212.75;4794174;29;101824;-86
2021/12/27 00:06:49;;;;;;;;;24.00;21.75;;;;;11.50;43.85;98211.09;4790839;29;103677;-86
2021/12/27 00:09:16;;;;;;;;;30.25;21.25;;;;;11.50;43.97;98202.97;5181693;23;103564;-86
2021/12/27 00:11:44;;;;;;;;;23.50;20.75;;;;;11.50;43.95;98200.25;4874167;28;103627;-86
2021/12/27 00:14:11;;;;;;;;;30.50;23.25;;;;;11.45;43.95;98195.50;4878345;28;102389;-86
2021/12/27 00:16:38;;;;;;;;;22.75;20.00;;;;;11.45;43.97;98198.19;4877264;28;103186;-87
2021/12/27 00:19:05;;;;;;;;;20.75;16.50;;;;;11.43;43.83;98197.59;4882673;28;102061;-86
2021/12/27 00:21:32;;;;;;;;;22.25;19.25;;;;;11.44;43.70;98201.94;4878434;28;103824;-86
2021/12/27 00:24:00;;;;;;;;;23.75;18.50;;;;;11.41;43.43;98191.56;4877785;28;102373;-86
2021/12/27 00:26:27;;;;;;;;;21.25;17.50;;;;;11.40;43.90;98194.47;4877635;28;104673;-86
2021/12/27 00:28:54;;;;;;;;;29.25;20.25;;;;;11.42;43.73;98185.09;4881028;28;102191;-86
2021/12/27 00:31:21;;;;;;;;;27.75;21.75;;;;;11.42;44.01;98190.50;4884296;28;101867;-86
2021/12/27 00:33:48;;;;;;;;;28.00;21.00;;;;;11.44;43.46;98187.56;4878477;28;102384;-86
2021/12/27 00:36:15;;;;;;;;;21.50;19.00;;;;;11.39;43.69;98185.50;4878568;28;103366;-86
2021/12/27 00:38:42;;;;;;;;;25.50;21.50;;;;;11.39;43.26;98190.13;4879965;28;102322;-87
2021/12/27 00:41:09;;;;;;;;;27.50;21.75;;;;;11.37;43.47;98184.09;4878633;28;102055;-87
2021/12/27 00:43:36;;;;;;;;;27.50;22.25;;;;;11.35;43.65;98184.28;4881215;28;103940;-86
2021/12/27 00:46:03;;;;;;;;;24.25;20.75;;;;;11.36;43.40;98180.53;4877479;28;103529;-86
2021/12/27 00:48:30;;;;;;;;;22.50;19.25;;;;;11.34;43.75;98179.94;4877244;28;104246;-86
2021/12/27 00:50:57;;;;;;;;;25.75;19.75;;;;;11.31;43.64;98176.81;4875064;28;102126;-86
2021/12/27 00:53:24;;;;;;;;;25.25;20.00;;;;;11.27;43.49;98173.72;4877041;28;102033;-86
2021/12/27 00:55:51;;;;;;;;;26.25;19.75;;;;;11.30;43.24;98175.19;4876416;28;103907;-86
2021/12/27 00:58:19;;;;;;;;;20.00;19.00;;;;;11.26;43.63;98174.75;4878777;28;102259;-86
2021/12/27 01:00:46;;;;;;;;;24.25;19.25;;;;;11.28;43.45;98175.38;4883431;28;102361;-86
2021/12/27 01:03:14;;;;;;;;;27.75;20.25;;;;;11.30;43.15;98178.69;4882328;28;103166;-86
2021/12/27 01:22:21;;;;;;;;;24.75;19.50;;;;;11.33;42.45;98183.69;5456165;23;103576;-86
2021/12/27 01:28:20;;;;;;;;;21.75;16.50;;;;;11.32;42.54;98190.13;4989854;23;105345;-86
2021/12/27 01:30:48;;;;;;;;;20.00;16.25;;;;;11.36;42.68;98193.25;4853067;28;102814;-87
2021/12/27 01:33:17;;;;;;;;;19.25;19.00;;;;;11.34;42.55;98204.31;4832836;28;102385;-86
2021/12/27 01:35:44;;;;;;;;;21.75;17.25;;;;;11.32;42.80;98195.56;4853946;28;102567;-86
2021/12/27 10:39:20;;;;;;;;;12.50;11.50;;;;;10.88;39.96;98049.47;5029786;23;102239;-76
2021/12/27 10:41:48;;;;;;;;;14.25;12.25;;;;;10.87;39.99;98045.94;4825376;28;102249;-77
2021/12/27 10:44:15;;;;;;;;;13.50;10.75;;;;;10.86;40.44;98038.03;4830879;28;104073;-77
2021/12/27 10:46:43;;;;;;;;;13.50;10.25;;;;;10.84;40.23;98032.03;4841441;28;102220;-77
2021/12/27 10:49:10;;;;;;;;;15.50;10.75;;;;;10.84;40.26;98040.13;4842242;28;102422;-78
2021/12/27 10:51:42;;;;;;;;;13.25;9.00;;;;;10.85;40.26;98030.97;4825577;28;102555;-78
2021/12/27 10:54:35;;;;;;;;;10.25;9.50;;;;;10.85;40.45;98031.78;4831494;28;102387;-77
2021/12/27 10:57:03;;;;;;;;;13.75;13.50;;;;;10.87;40.24;98018.88;4856527;28;101708;-77
2021/12/27 10:59:31;;;;;;;;;18.25;12.50;;;;;10.89;40.39;98019.53;4843481;28;102153;-77
2021/12/27 11:02:11;;;;;;;;;16.25;12.00;;;;;10.91;40.41;98013.88;4860054;28;102116;-78
2021/12/27 11:04:38;;;;;;;;;12.00;11.25;;;;;10.89;40.29;98007.88;4845804;28;103425;-77
2021/12/27 11:07:05;;;;;;;;;13.25;9.25;;;;;10.89;40.47;98010.56;4843314;29;102022;-77
2021/12/27 11:09:33;;;;;;;;;17.25;10.75;;;;;10.91;40.76;98008.47;4858068;28;101932;-77
2021/12/27 11:12:00;;;;;;;;;14.00;9.75;;;;;10.93;40.13;98009.09;4851745;29;101782;-77
2021/12/27 11:14:53;;;;;;;;;11.25;9.75;;;;;10.94;40.25;98008.03;4854861;28;103424;-77
2021/12/27 11:18:18;;;;;;;;;17.00;13.25;;;;;10.94;40.54;97994.53;4858007;28;102011;-77
2021/12/27 11:26:11;;;;;;;;;14.50;9.25;;;;;11.05;40.23;97988.41;4888990;23;105406;-89
2021/12/27 11:28:43;;;;;;;;;10.00;8.50;;;;;11.08;40.34;97993.34;4875851;28;102483;-89
2021/12/27 11:31:19;;;;;;;;;13.00;11.75;;;;;11.08;40.06;97991.47;4875159;28;102127;-88
2021/12/27 11:33:57;;;;;;;;;17.50;10.25;;;;;11.11;40.37;97992.94;4874246;28;102429;-88
2021/12/27 11:36:30;;;;;;;;;16.75;12.25;;;;;11.12;40.02;97994.59;4870897;28;104124;-89
2021/12/27 11:38:58;;;;;;;;;13.25;12.25;;;;;11.12;40.11;97989.19;4869186;28;102213;-89
2021/12/27 11:41:36;;;;;;;;;14.75;12.25;;;;;11.15;40.03;97994.16;4873696;28;102461;-89
2021/12/27 11:44:07;;;;;;;;;11.75;9.00;;;;;11.17;40.15;97981.22;4874813;28;102345;-89
2021/12/27 11:46:47;;;;;;;;;13.75;9.75;;;;;11.19;40.26;97979.13;4877816;28;104093;-89
2021/12/27 11:49:33;;;;;;;;;10.75;9.25;;;;;11.21;40.12;97982.47;4878043;28;102844;-89
2021/12/27 11:52:29;;;;;;;;;10.75;10.00;;;;;11.21;40.04;97976.22;4875809;28;102240;-89
2021/12/27 11:55:01;;;;;;;;;13.00;9.00;;;;;11.21;40.39;97982.47;4871402;28;102243;-88
2021/12/27 11:57:52;;;;;;;;;12.50;10.25;;;;;11.19;40.03;97976.44;4853776;28;103499;-89
2021/12/27 12:00:24;;;;;;;;;13.00;9.25;;;;;11.21;39.93;97966.22;4853748;28;102255;-88
2021/12/27 12:03:10;;;;;;;;;10.75;9.25;;;;;11.21;40.42;97965.41;4880339;28;102140;-89
2021/12/27 12:05:42;;;;;;;;;13.75;11.50;;;;;11.17;40.21;97955.00;4888056;28;102327;-89
2021/12/27 12:08:32;;;;;;;;;17.50;9.50;;;;;11.19;40.23;97957.50;4889335;28;103477;-90
2021/12/27 12:11:04;;;;;;;;;10.50;9.25;;;;;11.15;39.87;97949.00;4865411;28;101820;-90
2021/12/27 12:13:48;;;;;;;;;11.00;8.50;;;;;11.16;40.30;97952.53;4871618;28;101929;-89
2021/12/27 12:16:24;;;;;;;;;12.75;8.75;;;;;11.15;40.07;97945.44;4889382;28;102067;-90
2021/12/27 12:18:53;;;;;;;;;13.50;10.75;;;;;11.14;40.05;97954.59;4881173;28;102406;-89
2021/12/27 12:21:42;;;;;;;;;12.75;11.00;;;;;11.13;39.54;97948.38;4888822;28;102097;-90
2021/12/27 12:24:11;;;;;;;;;10.50;9.00;;;;;11.11;40.33;97938.84;4888648;28;101745;-90
2021/12/27 12:26:52;;;;;;;;;13.50;9.25;;;;;11.10;40.01;97938.00;4889083;28;101882;-90
2021/12/27 12:29:45;;;;;;;;;13.00;9.00;;;;;11.10;40.04;97938.00;4886507;28;102638;-90
2021/12/27 12:32:15;;;;;;;;;13.75;9.50;;;;;11.08;40.24;97933.84;4880400;28;101736;-90
2021/12/27 12:34:44;;;;;;;;;10.25;9.00;;;;;11.07;40.47;97932.22;4857328;28;102110;-91
2021/12/27 12:37:13;;;;;;;;;9.75;9.50;;;;;11.05;40.32;97940.53;4888908;28;102322;-91
2021/12/27 12:39:51;;;;;;;;;14.00;10.00;;;;;11.05;40.48;97931.59;4885003;28;103478;-91
2021/12/27 12:42:25;;;;;;;;;12.75;9.50;;;;;11.04;40.42;97938.03;4886392;28;102096;-89
2021/12/27 12:44:53;;;;;;;;;16.75;10.25;;;;;11.04;40.54;97940.75;4888737;28;101707;-90
2021/12/27 12:47:40;;;;;;;;;12.00;9.00;;;;;10.98;40.47;97933.53;4885948;28;102126;-88
2021/12/27 12:50:19;;;;;;;;;14.00;11.50;;;;;10.95;40.69;97932.06;4889713;28;103392;-90
2021/12/27 12:52:51;;;;;;;;;12.50;9.00;;;;;10.92;40.48;97928.97;4886800;28;101918;-90
2021/12/27 12:55:26;;;;;;;;;11.75;10.00;;;;;10.90;40.82;97931.06;4889459;28;101883;-90
2021/12/27 12:57:56;;;;;;;;;11.00;9.00;;;;;10.89;40.78;97937.53;4891604;28;102076;-90
2021/12/27 13:00:26;;;;;;;;;14.75;13.75;;;;;10.91;40.65;97927.31;4890475;28;102925;-90
2021/12/27 13:02:53;;;;;;;;;11.50;9.25;;;;;10.94;40.83;97932.31;4887638;28;102144;-90
2021/12/27 13:05:20;;;;;;;;;13.00;9.00;;;;;10.98;40.54;97933.53;4889885;28;101725;-90
2021/12/27 13:07:49;;;;;;;;;12.50;10.00;;;;;10.99;40.41;97918.94;4885304;28;105157;-90
2021/12/27 13:10:29;;;;;;;;;14.50;11.50;;;;;11.00;40.35;97909.78;4887236;28;104183;-89
2021/12/27 13:13:11;;;;;;;;;14.50;10.25;;;;;11.03;40.25;97917.47;4883130;28;101904;-90
2021/12/27 13:15:40;;;;;;;;;9.75;8.50;;;;;11.03;40.15;97906.66;4881959;28;101798;-89
2021/12/27 13:18:16;;;;;;;;;8.50;7.50;;;;;11.05;40.18;97908.06;4872953;28;102392;-90
2021/12/27 13:20:55;;;;;;;;;12.00;9.50;;;;;11.06;40.39;97919.72;4875048;28;102952;-90
2021/12/27 13:23:24;;;;;;;;;12.25;10.75;;;;;11.09;40.29;97921.97;4865280;28;102042;-90
2021/12/27 13:25:58;;;;;;;;;13.25;10.50;;;;;11.09;40.25;97919.28;4888001;28;102897;-90
2021/12/27 13:28:42;;;;;;;;;14.00;8.75;;;;;11.09;40.08;97920.09;4888200;28;102023;-89
2021/12/27 13:36:38;;;;;;;;;6.00;6.00;;;;;11.11;40.08;97925.31;5225665;23;103314;-83
2021/12/27 13:39:32;;;;;;;;;10.00;9.75;;;;;11.10;40.44;97927.19;4855184;28;103374;-82
2021/12/27 13:42:07;;;;;;;;;14.00;11.50;;;;;11.14;40.12;97924.84;4973739;23;101911;-87
2021/12/27 13:44:36;;;;;;;;;11.75;11.00;;;;;11.14;39.81;97922.16;4888489;28;102177;-87
2021/12/27 13:47:08;;;;;;;;;14.50;12.25;;;;;11.13;39.88;97925.88;4895743;28;103410;-87
2021/12/27 13:49:38;;;;;;;;;12.25;9.00;;;;;11.13;40.36;97918.59;4894340;28;101696;-87
2021/12/27 13:52:17;;;;;;;;;12.25;9.00;;;;;11.11;40.04;97928.00;4911982;28;103414;-87
2021/12/27 13:54:48;;;;;;;;;8.50;8.00;;;;;11.07;40.56;97924.09;4904945;28;102327;-87
2021/12/27 13:57:17;;;;;;;;;13.75;11.00;;;;;11.02;40.31;97930.16;4910719;28;101891;-87
2021/12/27 13:59:47;;;;;;;;;12.00;10.50;;;;;11.00;40.04;97939.53;4911356;28;101850;-87
2021/12/27 14:02:14;;;;;;;;;13.50;10.00;;;;;10.97;40.26;97942.69;4903394;28;106784;-87
2021/12/27 14:04:41;;;;;;;;;10.75;9.25;;;;;10.99;40.51;97935.16;4910002;28;102039;-87
2021/12/27 14:07:09;;;;;;;;;11.00;9.75;;;;;11.03;40.22;97944.53;4906045;28;102127;-87
2021/12/27 14:09:37;;;;;;;;;12.50;9.75;;;;;11.03;40.33;97942.63;4909459;28;103602;-87
2021/12/27 14:12:06;;;;;;;;;11.75;10.25;;;;;11.01;40.33;97949.31;4912385;28;103403;-87
2021/12/27 14:14:39;;;;;;;;;9.50;8.25;;;;;11.00;40.29;97937.66;4906249;28;101714;-86
2021/12/27 14:17:15;;;;;;;;;13.75;10.25;;;;;11.00;40.61;97940.34;4914652;28;102523;-87
2021/12/27 14:19:46;;;;;;;;;12.75;11.50;;;;;10.99;40.50;97940.56;4893660;28;102160;-86
2021/12/27 14:22:19;;;;;;;;;9.75;8.25;;;;;10.98;40.45;97937.06;4905784;28;102487;-87
2021/12/27 14:25:00;;;;;;;;;16.00;13.50;;;;;10.95;40.16;97934.78;4908215;28;102184;-87
2021/12/27 14:27:42;;;;;;;;;11.50;9.00;;;;;10.94;40.41;97938.53;4911250;28;101755;-86
2021/12/27 14:30:16;;;;;;;;;16.50;9.50;;;;;10.93;40.54;97933.34;4905644;28;102178;-86
2021/12/27 14:32:48;;;;;;;;;12.75;11.00;;;;;10.92;40.46;97942.50;4915436;28;102677;-86
2021/12/27 14:35:34;;;;;;;;;13.50;8.75;;;;;10.88;41.18;97935.88;4892270;28;101995;-86
2021/12/27 14:38:12;;;;;;;;;9.75;8.75;;;;;10.87;40.98;97939.63;4909631;28;102317;-86
2021/12/27 14:40:43;;;;;;;;;12.75;11.75;;;;;10.87;40.85;97943.16;4902813;28;101827;-87
2021/12/27 14:43:12;;;;;;;;;12.50;9.25;;;;;10.84;40.93;97940.06;4890150;28;102762;-87
2021/12/27 14:45:41;;;;;;;;;14.00;13.00;;;;;10.86;40.85;97946.06;4887851;28;103093;-87
2021/12/27 14:48:25;;;;;;;;;15.50;10.25;;;;;10.90;40.80;97941.88;4886311;28;101949;-87
2021/12/27 14:50:52;;;;;;;;;13.25;10.00;;;;;10.89;40.92;97948.38;4885858;28;102020;-87
2021/12/27 14:53:19;;;;;;;;;14.25;12.50;;;;;10.90;40.91;97941.88;4884431;28;104302;-86
2021/12/27 14:55:47;;;;;;;;;12.50;11.75;;;;;10.89;41.04;97945.66;4883079;28;102100;-86
2021/12/27 14:58:14;;;;;;;;;9.50;9.00;;;;;10.88;40.89;97947.53;4886327;28;101910;-86
2021/12/27 15:00:47;;;;;;;;;12.00;11.00;;;;;10.87;40.94;97945.03;4887531;28;102196;-85
2021/12/27 15:03:14;;;;;;;;;13.25;10.25;;;;;10.85;40.77;97956.06;4889691;28;103520;-88
2021/12/27 15:05:41;;;;;;;;;10.50;8.50;;;;;10.83;40.54;97949.22;4870335;28;101704;-87
2021/12/27 15:08:08;;;;;;;;;11.25;10.75;;;;;10.84;41.09;97948.19;4883239;28;102045;-86
2021/12/27 15:10:38;;;;;;;;;10.00;10.00;;;;;10.86;40.77;97946.06;4889433;28;102108;-85
2021/12/27 15:13:05;;;;;;;;;14.25;13.25;;;;;10.86;40.76;97946.91;4872416;28;103333;-85
2021/12/27 15:15:32;;;;;;;;;12.50;9.75;;;;;10.87;40.65;97937.75;4885947;28;102244;-85
2021/12/27 15:17:59;;;;;;;;;11.75;11.00;;;;;10.88;40.64;97936.72;4889696;28;101739;-85
2021/12/27 15:20:26;;;;;;;;;11.25;10.00;;;;;10.87;40.85;97939.63;4883914;28;102232;-85
2021/12/27 15:22:54;;;;;;;;;12.25;10.25;;;;;10.84;40.60;97945.47;4873573;28;103372;-85
2021/12/27 15:25:23;;;;;;;;;12.50;12.00;;;;;10.84;40.55;97956.31;4887858;28;102155;-85
2021/12/27 15:27:51;;;;;;;;;13.75;10.75;;;;;10.82;40.99;97947.56;4891149;28;103787;-87
2021/12/27 15:30:18;;;;;;;;;14.25;12.00;;;;;10.83;40.60;97962.75;4893356;28;101779;-85
2021/12/27 15:32:47;;;;;;;;;15.50;11.00;;;;;10.82;40.80;97963.78;4886213;28;102520;-87
2021/12/27 15:35:14;;;;;;;;;13.75;9.50;;;;;10.78;40.92;97954.47;4886301;28;103371;-88
2021/12/27 15:37:41;;;;;;;;;9.75;8.50;;;;;10.78;40.76;97949.06;4886149;28;102158;-89
2021/12/27 15:40:10;;;;;;;;;13.75;11.25;;;;;10.77;40.87;97952.78;4888248;28;101675;-87
2021/12/27 15:42:45;;;;;;;;;9.50;7.00;;;;;10.73;41.00;97958.66;4874085;28;103462;-89
2021/12/27 15:45:12;;;;;;;;;12.25;9.50;;;;;10.74;40.65;97954.91;4888397;28;102677;-89
2021/12/27 15:47:39;;;;;;;;;16.00;13.25;;;;;10.72;40.88;97950.75;4887534;28;102438;-88
2021/12/27 15:50:08;;;;;;;;;14.00;11.25;;;;;10.76;41.38;97961.97;4893404;28;101931;-86
2021/12/27 15:52:36;;;;;;;;;14.75;12.75;;;;;10.76;42.39;97961.97;4888935;28;103462;-88
2021/12/27 15:55:03;;;;;;;;;15.00;12.00;;;;;10.76;41.59;97961.97;4890834;28;102314;-88
2021/12/27 15:57:30;;;;;;;;;12.00;8.25;;;;;10.76;41.61;97967.38;4888112;28;103117;-89
2021/12/27 15:59:57;;;;;;;;;12.25;10.50;;;;;10.77;41.17;97966.31;4893671;28;102999;-89
2021/12/27 16:02:25;;;;;;;;;14.50;11.75;;;;;10.79;41.17;97966.94;4891791;28;103453;-89
2021/12/27 16:04:53;;;;;;;;;13.50;9.25;;;;;10.81;41.02;97964.84;4875630;28;101789;-89
2021/12/27 16:07:20;;;;;;;;;12.25;11.00;;;;;10.85;42.38;97966.09;4888337;28;102025;-89
2021/12/27 16:09:48;;;;;;;;;17.25;13.00;;;;;10.93;41.01;97968.50;4890640;28;102355;-86
2021/12/27 16:12:15;;;;;;;;;12.75;11.50;;;;;10.95;40.89;97971.81;4894458;28;103239;-88
2021/12/27 16:14:43;;;;;;;;;12.75;12.00;;;;;10.96;40.76;97970.78;4891804;28;102206;-88
2021/12/27 16:17:11;;;;;;;;;11.00;7.00;;;;;10.96;40.69;97968.06;4894272;28;102133;-88
2021/12/27 16:19:40;;;;;;;;;18.00;14.50;;;;;10.98;40.49;97976.81;4895917;28;101740;-88
2021/12/27 16:22:08;;;;;;;;;12.75;12.25;;;;;10.96;40.47;97978.88;4890063;28;102901;-87
2021/12/27 16:24:40;;;;;;;;;14.25;11.50;;;;;10.99;40.37;97979.28;4891717;28;103541;-90
2021/12/27 16:27:08;;;;;;;;;17.25;12.25;;;;;11.01;39.61;97984.47;4888291;28;102224;-88
2021/12/27 16:29:36;;;;;;;;;21.00;13.75;;;;;11.00;40.44;97978.22;4890408;28;103523;-89
2021/12/27 16:32:04;;;;;;;;;12.50;12.00;;;;;11.03;40.14;97976.97;4895839;28;103656;-87
2021/12/27 16:34:31;;;;;;;;;16.50;13.00;;;;;11.00;40.21;97977.41;4888188;28;102112;-89
2021/12/27 16:36:58;;;;;;;;;13.75;11.75;;;;;11.00;40.21;97970.13;4890629;28;102024;-88
2021/12/27 16:39:30;;;;;;;;;16.25;12.50;;;;;10.97;40.19;97967.03;4877727;28;101897;-88
2021/12/27 16:41:59;;;;;;;;;13.25;10.50;;;;;10.98;40.33;97965.97;4871673;28;103633;-88
2021/12/27 16:44:29;;;;;;;;;17.50;13.50;;;;;10.97;40.27;97980.56;4887040;28;102298;-88
2021/12/27 16:47:04;;;;;;;;;12.25;12.00;;;;;10.98;40.17;97979.50;4890617;28;101769;-88
2021/12/27 16:49:33;;;;;;;;;18.50;14.50;;;;;10.95;40.34;97986.16;4889071;28;103099;-88
2021/12/27 16:52:04;;;;;;;;;14.00;12.25;;;;;10.94;40.41;97976.38;4887159;28;103361;-88
2021/12/27 16:54:33;;;;;;;;;16.75;13.75;;;;;10.96;40.18;97973.47;4888578;28;101848;-88
2021/12/27 16:57:04;;;;;;;;;9.75;9.00;;;;;10.94;40.54;97981.81;4888166;28;106690;-89
2021/12/27 16:59:35;;;;;;;;;12.50;12.00;;;;;10.93;40.73;97979.34;4891382;28;102821;-90
2021/12/27 17:02:04;;;;;;;;;14.00;13.25;;;;;10.90;40.45;97974.34;4888766;28;105121;-90
2021/12/27 17:04:34;;;;;;;;;18.00;14.00;;;;;10.91;40.55;97976.00;4873144;28;102563;-87
2021/12/27 17:07:04;;;;;;;;;14.75;11.75;;;;;10.88;40.91;97969.16;4892220;28;110725;-91
2021/12/27 17:09:33;;;;;;;;;15.00;13.00;;;;;10.84;40.57;97980.63;4888437;28;107641;-90
2021/12/27 17:12:11;;;;;;;;;18.25;13.00;;;;;10.83;40.62;97968.16;4889067;28;102618;-90
2021/12/27 17:14:40;;;;;;;;;12.75;11.00;;;;;10.81;40.19;97971.06;4883593;28;101993;-88
2021/12/27 17:17:07;;;;;;;;;19.25;14.00;;;;;10.87;41.65;97977.50;4885652;28;103154;-91
2021/12/27 17:19:34;;;;;;;;;17.00;13.00;;;;;10.90;41.88;97974.34;4891271;28;103119;-91
2021/12/27 17:22:03;;;;;;;;;17.25;12.50;;;;;10.91;41.63;97970.59;4882402;28;103823;-90
2021/12/27 17:24:31;;;;;;;;;18.50;13.75;;;;;10.91;40.95;97965.19;4888794;28;102891;-91
2021/12/27 17:27:00;;;;;;;;;16.25;13.75;;;;;10.88;41.17;97973.75;4885858;28;102207;-91
2021/12/27 17:29:27;;;;;;;;;18.25;14.75;;;;;10.85;41.01;97966.09;4881399;28;102387;-91
2021/12/27 17:31:54;;;;;;;;;17.25;13.75;;;;;10.82;41.05;97961.09;4889669;28;103486;-91
2021/12/27 17:34:21;;;;;;;;;18.50;14.75;;;;;10.81;40.93;97965.66;4886051;28;102169;-91
2021/12/27 17:36:49;;;;;;;;;14.75;13.50;;;;;10.80;41.04;97963.19;4884856;28;102124;-91
2021/12/27 17:39:18;;;;;;;;;14.75;13.75;;;;;10.82;41.24;97955.69;4889884;28;103262;-90
2021/12/27 17:41:45;;;;;;;;;13.50;12.25;;;;;10.78;42.19;97957.16;4882910;28;103508;-91
2021/12/27 17:44:12;;;;;;;;;15.75;13.00;;;;;10.78;41.63;97959.88;4887315;28;102633;-90
2021/12/27 17:46:41;;;;;;;;;17.25;13.75;;;;;10.77;41.55;97956.34;4887906;28;102675;-89
2021/12/27 17:49:09;;;;;;;;;15.75;12.25;;;;;10.82;42.23;97961.09;4885596;28;103049;-89
2021/12/27 17:51:36;;;;;;;;;13.25;13.25;;;;;10.84;42.30;97953.59;4885445;28;103427;-90
2021/12/27 17:54:05;;;;;;;;;14.25;13.00;;;;;10.86;41.66;97948.78;4885697;28;102281;-90
2021/12/27 17:56:33;;;;;;;;;16.75;15.50;;;;;10.88;41.40;97942.13;4884035;28;102972;-90
2021/12/27 17:59:00;;;;;;;;;16.50;13.00;;;;;10.88;41.05;97946.69;4889515;28;102079;-89
2021/12/27 18:01:27;;;;;;;;;15.50;14.50;;;;;10.86;41.62;97951.47;4882302;28;103470;-89
2021/12/27 18:03:57;;;;;;;;;15.00;14.00;;;;;10.83;41.03;97952.75;4885050;28;102492;-89
2021/12/27 18:06:24;;;;;;;;;14.00;11.25;;;;;10.80;41.38;97949.69;4886367;28;102219;-87
2021/12/27 18:08:51;;;;;;;;;15.75;12.75;;;;;10.79;41.29;97948.00;4885512;28;102285;-90
2021/12/27 18:11:18;;;;;;;;;17.00;14.00;;;;;10.79;41.15;97950.72;4852999;28;102628;-91
2021/12/27 18:13:45;;;;;;;;;18.25;14.25;;;;;10.78;41.04;97959.88;4887222;28;102703;-91
2021/12/27 18:16:12;;;;;;;;;15.25;14.00;;;;;10.78;41.17;97951.75;4880794;28;102666;-90
2021/12/27 18:18:39;;;;;;;;;14.00;9.75;;;;;10.80;41.24;97957.78;4883917;28;101680;-90
2021/12/27 18:21:07;;;;;;;;;17.75;13.25;;;;;10.82;40.96;97950.28;4883568;28;103388;-90
2021/12/27 18:24:18;;;;;;;;;15.50;13.25;;;;;10.81;40.90;97948.63;4821343;28;102438;-90
2021/12/27 18:26:46;;;;;;;;;18.25;14.00;;;;;10.81;41.00;97949.44;4884901;28;102339;-90
2021/12/27 18:29:13;;;;;;;;;13.50;11.50;;;;;10.81;40.90;97949.44;4889234;28;103062;-91
2021/12/27 18:31:42;;;;;;;;;18.00;13.50;;;;;10.81;40.95;97954.03;4887539;28;103862;-91
2021/12/27 18:34:10;;;;;;;;;14.25;11.75;;;;;10.78;41.00;97947.19;4880661;28;102145;-91
2021/12/27 18:36:38;;;;;;;;;16.75;14.00;;;;;10.74;41.15;97941.38;4885636;28;102993;-91
2021/12/27 18:39:08;;;;;;;;;16.00;14.00;;;;;10.73;40.95;97942.41;4887921;28;102164;-91
2021/12/27 18:41:35;;;;;;;;;16.25;13.50;;;;;10.72;41.13;97939.94;4871951;28;103409;-91
2021/12/27 18:44:03;;;;;;;;;17.00;13.50;;;;;10.71;41.02;97949.13;4884594;28;102054;-91
2021/12/27 18:46:30;;;;;;;;;22.00;15.50;;;;;10.68;40.99;97944.94;4891199;28;102847;-92
2021/12/27 18:48:57;;;;;;;;;19.75;14.25;;;;;10.65;41.12;97937.28;4887595;28;102082;-90
2021/12/27 18:51:25;;;;;;;;;17.50;13.50;;;;;10.65;40.95;97942.69;4882054;28;103416;-88
2021/12/27 18:53:54;;;;;;;;;17.75;14.25;;;;;10.69;40.92;97943.91;4889356;28;102785;-90
2021/12/27 18:56:24;;;;;;;;;13.00;12.50;;;;;10.73;40.54;97936.19;4888695;28;102389;-87
2021/12/27 18:58:54;;;;;;;;;18.00;13.75;;;;;10.72;40.31;97934.53;4885752;28;102380;-88
2021/12/27 19:01:23;;;;;;;;;15.50;14.00;;;;;10.72;40.66;97950.75;4889895;28;104427;-88
2021/12/27 19:03:53;;;;;;;;;16.25;13.75;;;;;10.71;40.78;97952.66;4886209;28;102171;-88
2021/12/27 19:06:22;;;;;;;;;13.50;12.75;;;;;10.73;40.56;97945.13;4886289;28;102195;-87
2021/12/27 19:08:53;;;;;;;;;20.00;14.25;;;;;10.80;40.53;97941.56;4889601;28;102149;-88
2021/12/27 19:11:22;;;;;;;;;15.00;14.00;;;;;10.87;40.29;97939.63;4866470;28;103390;-88
2021/12/27 19:13:52;;;;;;;;;19.00;14.50;;;;;10.89;40.41;97946.50;4889617;28;102506;-89
2021/12/27 19:16:22;;;;;;;;;15.75;14.75;;;;;10.91;40.38;97932.72;4872747;28;102299;-86
2021/12/27 19:18:52;;;;;;;;;13.50;11.25;;;;;10.91;40.34;97924.63;4857603;28;102057;-87
2021/12/27 19:21:21;;;;;;;;;14.75;13.75;;;;;10.91;40.59;97928.16;4887738;28;102938;-86
2021/12/27 19:23:50;;;;;;;;;17.00;14.50;;;;;10.91;40.32;97928.16;4884831;28;102712;-87
2021/12/27 19:26:19;;;;;;;;;14.25;13.00;;;;;10.90;40.45;97925.66;4887674;28;102148;-86
2021/12/27 19:28:49;;;;;;;;;16.50;12.00;;;;;10.93;40.51;97931.47;4885499;28;102203;-87
2021/12/27 19:31:18;;;;;;;;;20.00;13.75;;;;;10.89;40.25;97940.25;4887198;28;102755;-87
2021/12/27 19:33:48;;;;;;;;;15.50;13.75;;;;;10.88;40.35;97933.19;4883775;28;102194;-89
2021/12/27 19:36:17;;;;;;;;;13.25;12.00;;;;;10.88;40.30;97927.78;4886366;28;102105;-88
2021/12/27 19:38:46;;;;;;;;;16.75;12.50;;;;;10.90;40.22;97936.47;4888725;28;101921;-88
2021/12/27 19:41:17;;;;;;;;;18.25;14.25;;;;;10.85;40.34;97939.03;4887149;28;103690;-88
2021/12/27 19:43:51;;;;;;;;;14.00;12.00;;;;;10.85;40.52;97953.34;4889772;28;101825;-85
2021/12/27 19:46:20;;;;;;;;;13.50;13.00;;;;;10.83;40.45;97947.34;4884118;28;102176;-89
2021/12/27 19:48:49;;;;;;;;;18.00;13.75;;;;;10.87;40.36;97947.75;4884190;28;102597;-87
2021/12/27 19:51:17;;;;;;;;;18.75;16.00;;;;;10.94;45.67;97951.25;4882991;28;103399;-86
2021/12/27 19:53:46;;;;;;;;;20.25;15.25;;;;;10.98;47.55;97950.59;4862668;28;102136;-86
2021/12/27 19:56:16;;;;;;;;;15.00;12.25;;;;;11.00;47.00;97950.34;4890485;28;102126;-86
2021/12/27 19:58:46;;;;;;;;;13.00;13.00;;;;;11.01;46.78;97952.00;4887212;28;102068;-86
2021/12/27 20:01:19;;;;;;;;;13.75;12.00;;;;;11.01;45.86;97946.59;4885604;28;103206;-86
2021/12/27 20:03:48;;;;;;;;;16.25;12.75;;;;;10.99;45.83;97943.28;4883523;28;102031;-85
2021/12/27 20:06:18;;;;;;;;;20.50;16.00;;;;;10.94;45.88;97943.13;4867330;28;102293;-86
2021/12/27 20:08:48;;;;;;;;;21.00;17.50;;;;;10.93;45.25;97944.16;4870167;28;102187;-86
2021/12/27 20:11:17;;;;;;;;;19.50;17.25;;;;;10.93;44.77;97930.66;4879551;28;102977;-85
2021/12/27 20:13:46;;;;;;;;;24.00;16.75;;;;;10.93;44.54;97931.47;4871114;28;103639;-85
2021/12/27 20:16:13;;;;;;;;;16.25;13.00;;;;;10.93;44.58;97925.25;4863735;28;103746;-85
2021/12/27 20:18:40;;;;;;;;;20.25;15.00;;;;;10.92;44.61;97937.09;4875633;28;102561;-85
2021/12/27 20:21:08;;;;;;;;;16.75;14.25;;;;;10.92;44.84;97937.94;4867576;28;104104;-86
2021/12/27 20:23:35;;;;;;;;;16.75;14.00;;;;;10.91;44.67;97940.84;4865717;28;102098;-86
2021/12/27 20:26:05;;;;;;;;;17.00;14.00;;;;;10.91;45.02;97935.44;4873005;28;103590;-86
2021/12/27 20:28:34;;;;;;;;;15.75;12.50;;;;;10.90;44.95;97936.47;4864583;28;102629;-85
2021/12/27 20:31:01;;;;;;;;;13.75;13.00;;;;;10.87;45.50;97937.75;4870771;28;104223;-85
2021/12/27 20:33:28;;;;;;;;;16.00;13.75;;;;;10.90;45.44;97922.94;4870014;28;103296;-86
2021/12/27 20:35:56;;;;;;;;;20.00;15.50;;;;;10.93;44.98;97925.25;4867612;28;102422;-86
2021/12/27 20:38:23;;;;;;;;;17.00;14.75;;;;;10.96;45.07;97913.97;4871226;28;102734;-87
2021/12/27 20:40:51;;;;;;;;;21.25;16.75;;;;;10.98;45.11;97928.13;4866274;28;104317;-90
2021/12/27 20:43:22;;;;;;;;;17.00;14.75;;;;;11.00;44.71;97915.19;4871921;28;102374;-88
2021/12/27 20:45:50;;;;;;;;;18.75;15.75;;;;;11.02;45.04;97907.69;4872218;28;103009;-88
2021/12/27 20:48:21;;;;;;;;;12.50;10.25;;;;;11.03;44.99;97901.22;4874052;28;102452;-88
2021/12/27 20:50:49;;;;;;;;;19.25;15.00;;;;;11.04;45.02;97900.16;4866669;28;102884;-87
2021/12/27 20:53:18;;;;;;;;;17.75;14.50;;;;;11.07;44.98;97905.16;4873873;28;102593;-87
2021/12/27 20:55:45;;;;;;;;;19.75;16.25;;;;;11.06;44.99;97904.31;4868942;28;102643;-88
2021/12/27 20:58:13;;;;;;;;;18.75;14.75;;;;;11.06;44.94;97900.78;4872846;28;102857;-87
2021/12/27 21:00:43;;;;;;;;;20.25;18.75;;;;;11.06;45.03;97907.03;4870739;28;104076;-87